sensor_id;sensor_type;location;lat;lon;timestamp;pressure;altitude;pressure_sealevel;temperature;humidity
19736;BME280;32064;49.310;8.646;2023-01-10T00:00:23;100234.47;;;9.63;81.68
19736;BME280;32064;49.310;8.646;2023-01-10T00:02:49;100227.97;;;9.69;81.87
19736;BME280;32064;49.310;8.646;2023-01-10T00:05:15;100235.72;;;9.71;80.89
19736;BME280;32064;49.310;8.646;2023-01-10T00:07:40;100235.84;;;9.69;81.40
19736;BME280;32064;49.310;8.646;2023-01-10T00:10:06;100236.59;;;9.71;81.74
19736;BME280;32064;49.310;8.646;2023-01-10T00:12:32;100250.88;;;9.67;81.99
19736;BME280;32064;49.310;8.646;2023-01-10T00:15:15;100248.16;;;9.69;80.50
19736;BME280;32064;49.310;8.646;2023-01-10T00:17:41;100247.63;;;9.63;80.30
19736;BME280;32064;49.310;8.646;2023-01-10T00:20:07;100250.25;;;9.63;81.48
19736;BME280;32064;49.310;8.646;2023-01-10T00:22:32;100246.88;;;9.61;80.31
19736;BME280;32064;49.310;8.646;2023-01-10T00:24:58;100257.50;;;9.60;81.75
19736;BME280;32064;49.310;8.646;2023-01-10T00:27:23;100259.91;;;9.63;80.33
19736;BME280;32064;49.310;8.646;2023-01-10T00:29:48;100258.97;;;9.64;80.96
19736;BME280;32064;49.310;8.646;2023-01-10T00:32:18;100274.19;;;9.59;81.80
19736;BME280;32064;49.310;8.646;2023-01-10T00:34:44;100282.41;;;9.54;81.27
19736;BME280;32064;49.310;8.646;2023-01-10T00:37:09;100283.22;;;9.55;80.84
19736;BME280;32064;49.310;8.646;2023-01-10T00:39:35;100298.16;;;9.54;81.53
19736;BME280;32064;49.310;8.646;2023-01-10T00:42:00;100297.09;;;9.57;80.58
19736;BME280;32064;49.310;8.646;2023-01-10T00:44:44;100302.53;;;9.54;81.49
19736;BME280;32064;49.310;8.646;2023-01-10T00:47:12;100311.16;;;9.56;80.80
19736;BME280;32064;49.310;8.646;2023-01-10T00:49:38;100314.63;;;9.56;80.59
19736;BME280;32064;49.310;8.646;2023-01-10T00:52:04;100324.00;;;9.60;80.44
19736;BME280;32064;49.310;8.646;2023-01-10T00:54:29;100324.00;;;9.60;81.66
19736;BME280;32064;49.310;8.646;2023-01-10T00:56:55;100331.03;;;9.60;80.35
19736;BME280;32064;49.310;8.646;2023-01-10T00:59:21;100337.88;;;9.62;80.34
19736;BME280;32064;49.310;8.646;2023-01-10T01:01:46;100338.03;;;9.59;81.11
19736;BME280;32064;49.310;8.646;2023-01-10T01:04:12;100350.56;;;9.56;80.80
19736;BME280;32064;49.310;8.646;2023-01-10T01:06:37;100360.31;;;9.54;80.69
19736;BME280;32064;49.310;8.646;2023-01-10T01:09:02;100364.50;;;9.56;81.70
19736;BME280;32064;49.310;8.646;2023-01-10T01:11:28;100371.69;;;9.54;82.15
19736;BME280;32064;49.310;8.646;2023-01-10T01:13:53;100382.19;;;9.54;80.73
19736;BME280;32064;49.310;8.646;2023-01-10T01:16:18;100395.31;;;9.54;81.95
19736;BME280;32064;49.310;8.646;2023-01-10T01:18:44;100397.06;;;9.54;80.59
19736;BME280;32064;49.310;8.646;2023-01-10T01:21:09;100402.25;;;9.55;80.39
19736;BME280;32064;49.310;8.646;2023-01-10T01:23:35;100415.44;;;9.54;80.72
19736;BME280;32064;49.310;8.646;2023-01-10T01:26:01;100427.66;;;9.55;80.88
19736;BME280;32064;49.310;8.646;2023-01-10T01:28:27;100434.03;;;9.51;80.79
19736;BME280;32064;49.310;8.646;2023-01-10T01:30:52;100433.97;;;9.52;80.62
19736;BME280;32064;49.310;8.646;2023-01-10T01:33:18;100447.63;;;9.57;81.39
19736;BME280;32064;49.310;8.646;2023-01-10T01:35:45;100455.72;;;9.54;80.88
19736;BME280;32064;49.310;8.646;2023-01-10T01:38:12;100465.06;;;9.58;82.09
19736;BME280;32064;49.310;8.646;2023-01-10T01:40:37;100479.78;;;9.61;81.33
19736;BME280;32064;49.310;8.646;2023-01-10T01:43:24;100489.53;;;9.59;80.11
19736;BME280;32064;49.310;8.646;2023-01-10T01:45:51;100487.75;;;9.59;80.93
19736;BME280;32064;49.310;8.646;2023-01-10T01:48:20;100509.44;;;9.63;80.08
19736;BME280;32064;49.310;8.646;2023-01-10T01:50:59;100509.22;;;9.66;81.30
19736;BME280;32064;49.310;8.646;2023-01-10T01:53:37;100510.34;;;9.62;79.48
19736;BME280;32064;49.310;8.646;2023-01-10T01:56:12;100520.47;;;9.68;79.76
19736;BME280;32064;49.310;8.646;2023-01-10T01:58:48;100523.94;;;9.69;81.07
19736;BME280;32064;49.310;8.646;2023-01-10T02:01:15;100534.16;;;9.73;80.25
19736;BME280;32064;49.310;8.646;2023-01-10T02:03:44;100539.50;;;9.72;80.73
19736;BME280;32064;49.310;8.646;2023-01-10T02:06:11;100540.44;;;9.71;79.94
19736;BME280;32064;49.310;8.646;2023-01-10T02:08:43;100541.78;;;9.63;80.33
19736;BME280;32064;49.310;8.646;2023-01-10T02:11:11;100544.28;;;9.65;79.82
19736;BME280;32064;49.310;8.646;2023-01-10T02:13:41;100565.06;;;9.55;79.98
19736;BME280;32064;49.310;8.646;2023-01-10T02:16:08;100564.88;;;9.58;80.28
19736;BME280;32064;49.310;8.646;2023-01-10T02:18:36;100563.91;;;9.59;79.28
19736;BME280;32064;49.310;8.646;2023-01-10T02:21:15;100572.19;;;9.53;78.44
19736;BME280;32064;49.310;8.646;2023-01-10T02:24:08;100580.81;;;9.55;79.65
19736;BME280;32064;49.310;8.646;2023-01-10T02:26:54;100581.25;;;9.62;78.90
19736;BME280;32064;49.310;8.646;2023-01-10T02:34:50;100600.31;;;9.65;78.53
19736;BME280;32064;49.310;8.646;2023-01-10T02:37:46;100609.25;;;9.63;78.84
19736;BME280;32064;49.310;8.646;2023-01-10T02:43:08;100614.19;;;9.67;77.46
19736;BME280;32064;49.310;8.646;2023-01-10T02:45:44;100612.31;;;9.70;78.35
19736;BME280;32064;49.310;8.646;2023-01-10T02:48:11;100611.16;;;9.74;78.04
19736;BME280;32064;49.310;8.646;2023-01-10T02:53:13;100620.00;;;9.73;76.67
19736;BME280;32064;49.310;8.646;2023-01-10T02:59:08;100625.72;;;9.65;77.02
19736;BME280;32064;49.310;8.646;2023-01-10T03:01:45;100630.69;;;9.70;77.25
19736;BME280;32064;49.310;8.646;2023-01-10T03:04:44;100632.03;;;9.62;76.45
19736;BME280;32064;49.310;8.646;2023-01-10T03:07:36;100633.59;;;9.65;78.26
19736;BME280;32064;49.310;8.646;2023-01-10T03:10:16;100646.75;;;9.65;77.23
19736;BME280;32064;49.310;8.646;2023-01-10T03:12:52;100651.25;;;9.63;78.22
19736;BME280;32064;49.310;8.646;2023-01-10T03:15:23;100653.13;;;9.61;76.20
19736;BME280;32064;49.310;8.646;2023-01-10T03:17:53;100668.25;;;9.57;77.65
19736;BME280;32064;49.310;8.646;2023-01-10T03:20:21;100654.91;;;9.60;76.74
19736;BME280;32064;49.310;8.646;2023-01-10T03:22:47;100659.16;;;9.63;76.87
19736;BME280;32064;49.310;8.646;2023-01-10T03:25:15;100663.56;;;9.62;76.08
19736;BME280;32064;49.310;8.646;2023-01-10T03:28:02;100676.13;;;9.57;77.07
19736;BME280;32064;49.310;8.646;2023-01-10T03:30:38;100679.47;;;9.59;75.99
19736;BME280;32064;49.310;8.646;2023-01-10T03:33:06;100686.72;;;9.56;75.70
19736;BME280;32064;49.310;8.646;2023-01-10T03:38:30;100691.31;;;9.52;75.69
19736;BME280;32064;49.310;8.646;2023-01-10T03:41:14;100690.75;;;9.47;76.25
19736;BME280;32064;49.310;8.646;2023-01-10T03:44:11;100685.31;;;9.50;76.42
19736;BME280;32064;49.310;8.646;2023-01-10T03:47:04;100694.97;;;9.50;74.83
19736;BME280;32064;49.310;8.646;2023-01-10T03:49:34;100696.47;;;9.54;74.61
19736;BME280;32064;49.310;8.646;2023-01-10T03:52:02;100696.56;;;9.52;75.21
19736;BME280;32064;49.310;8.646;2023-01-10T03:54:29;100709.78;;;9.51;76.11
19736;BME280;32064;49.310;8.646;2023-01-10T03:56:54;100718.59;;;9.50;76.41
19736;BME280;32064;49.310;8.646;2023-01-10T03:59:23;100726.56;;;9.48;75.20
19736;BME280;32064;49.310;8.646;2023-01-10T04:01:49;100731.94;;;9.47;75.89
19736;BME280;32064;49.310;8.646;2023-01-10T04:04:15;100737.19;;;9.47;75.54
19736;BME280;32064;49.310;8.646;2023-01-10T04:06:40;100737.19;;;9.47;76.00
19736;BME280;32064;49.310;8.646;2023-01-10T04:09:06;100738.00;;;9.47;75.24
19736;BME280;32064;49.310;8.646;2023-01-10T04:11:32;100738.97;;;9.46;74.69
19736;BME280;32064;49.310;8.646;2023-01-10T04:13:57;100739.81;;;9.47;76.20
19736;BME280;32064;49.310;8.646;2023-01-10T04:16:23;100742.50;;;9.45;75.54
19736;BME280;32064;49.310;8.646;2023-01-10T04:18:48;100752.53;;;9.38;74.89
19736;BME280;32064;49.310;8.646;2023-01-10T04:21:14;100755.09;;;9.40;75.46
19736;BME280;32064;49.310;8.646;2023-01-10T04:23:39;100763.81;;;9.40;75.87
19736;BME280;32064;49.310;8.646;2023-01-10T04:26:05;100764.72;;;9.39;76.27
19736;BME280;32064;49.310;8.646;2023-01-10T04:28:30;100769.44;;;9.34;76.15
19736;BME280;32064;49.310;8.646;2023-01-10T04:30:56;100776.16;;;9.38;74.94
19736;BME280;32064;49.310;8.646;2023-01-10T04:33:21;100782.19;;;9.40;74.76
19736;BME280;32064;49.310;8.646;2023-01-10T04:35:48;100783.97;;;9.40;75.24
19736;BME280;32064;49.310;8.646;2023-01-10T04:38:14;100791.09;;;9.38;74.91
19736;BME280;32064;49.310;8.646;2023-01-10T04:40:40;100792.19;;;9.34;76.02
19736;BME280;32064;49.310;8.646;2023-01-10T04:43:06;100792.28;;;9.32;75.69
19736;BME280;32064;49.310;8.646;2023-01-10T04:45:31;100802.88;;;9.31;75.94
19736;BME280;32064;49.310;8.646;2023-01-10T04:47:57;100804.56;;;9.32;75.92
19736;BME280;32064;49.310;8.646;2023-01-10T04:50:24;100807.28;;;9.30;75.40
19736;BME280;32064;49.310;8.646;2023-01-10T04:52:50;100819.38;;;9.33;76.35
19736;BME280;32064;49.310;8.646;2023-01-10T04:55:15;100821.00;;;9.35;76.96
19736;BME280;32064;49.310;8.646;2023-01-10T04:57:41;100821.25;;;9.31;76.69
19736;BME280;32064;49.310;8.646;2023-01-10T05:00:08;100829.03;;;9.32;75.66
19736;BME280;32064;49.310;8.646;2023-01-10T05:02:34;100843.09;;;9.31;75.93
19736;BME280;32064;49.310;8.646;2023-01-10T05:04:59;100844.22;;;9.27;76.66
19736;BME280;32064;49.310;8.646;2023-01-10T05:07:24;100843.19;;;9.30;75.97
19736;BME280;32064;49.310;8.646;2023-01-10T05:09:50;100854.81;;;9.26;76.26
19736;BME280;32064;49.310;8.646;2023-01-10T05:12:15;100854.53;;;9.30;76.78
19736;BME280;32064;49.310;8.646;2023-01-10T05:14:41;100846.66;;;9.30;76.66
19736;BME280;32064;49.310;8.646;2023-01-10T05:17:06;100852.19;;;9.26;76.23
19736;BME280;32064;49.310;8.646;2023-01-10T05:19:31;100857.34;;;9.27;77.09
19736;BME280;32064;49.310;8.646;2023-01-10T05:21:57;100863.78;;;9.21;77.58
19736;BME280;32064;49.310;8.646;2023-01-10T05:24:22;100875.91;;;9.24;76.81
19736;BME280;32064;49.310;8.646;2023-01-10T05:26:48;100875.06;;;9.24;77.03
19736;BME280;32064;49.310;8.646;2023-01-10T05:29:13;100873.94;;;9.28;77.19
19736;BME280;32064;49.310;8.646;2023-01-10T05:31:39;100871.47;;;9.25;76.30
19736;BME280;32064;49.310;8.646;2023-01-10T05:34:04;100887.16;;;9.26;77.55
19736;BME280;32064;49.310;8.646;2023-01-10T05:36:30;100885.72;;;9.20;77.64
19736;BME280;32064;49.310;8.646;2023-01-10T05:38:56;100891.81;;;9.21;77.33
19736;BME280;32064;49.310;8.646;2023-01-10T05:41:22;100877.75;;;9.22;77.21
19736;BME280;32064;49.310;8.646;2023-01-10T05:43:48;100888.84;;;9.27;77.79
19736;BME280;32064;49.310;8.646;2023-01-10T05:46:14;100895.88;;;9.27;77.63
19736;BME280;32064;49.310;8.646;2023-01-10T05:48:39;100885.44;;;9.25;77.05
19736;BME280;32064;49.310;8.646;2023-01-10T05:51:05;100888.25;;;9.22;77.01
19736;BME280;32064;49.310;8.646;2023-01-10T05:53:31;100896.31;;;9.19;77.57
19736;BME280;32064;49.310;8.646;2023-01-10T05:55:59;100905.00;;;9.19;76.51
19736;BME280;32064;49.310;8.646;2023-01-10T05:58:25;100913.66;;;9.21;76.94
19736;BME280;32064;49.310;8.646;2023-01-10T06:00:53;100903.16;;;9.21;77.66
19736;BME280;32064;49.310;8.646;2023-01-10T06:03:19;100915.34;;;9.22;77.53
19736;BME280;32064;49.310;8.646;2023-01-10T06:05:45;100915.34;;;9.22;77.71
19736;BME280;32064;49.310;8.646;2023-01-10T06:08:10;100925.78;;;9.24;77.53
19736;BME280;32064;49.310;8.646;2023-01-10T06:10:35;100934.59;;;9.23;76.54
19736;BME280;32064;49.310;8.646;2023-01-10T06:13:01;100941.44;;;9.26;77.28
19736;BME280;32064;49.310;8.646;2023-01-10T06:15:26;100946.84;;;9.22;76.79
19736;BME280;32064;49.310;8.646;2023-01-10T06:17:52;100949.41;;;9.24;76.37
19736;BME280;32064;49.310;8.646;2023-01-10T06:20:18;100950.25;;;9.25;75.80
19736;BME280;32064;49.310;8.646;2023-01-10T06:22:43;100951.94;;;9.26;77.10
19736;BME280;32064;49.310;8.646;2023-01-10T06:25:10;100951.06;;;9.25;76.54
19736;BME280;32064;49.310;8.646;2023-01-10T06:27:40;100964.47;;;9.20;77.65
19736;BME280;32064;49.310;8.646;2023-01-10T06:30:07;100967.78;;;9.24;76.57
19736;BME280;32064;49.310;8.646;2023-01-10T06:32:32;100975.47;;;9.27;76.38
19736;BME280;32064;49.310;8.646;2023-01-10T06:34:58;100976.59;;;9.23;77.00
19736;BME280;32064;49.310;8.646;2023-01-10T06:37:23;100979.13;;;9.25;77.40
19736;BME280;32064;49.310;8.646;2023-01-10T06:39:49;100986.09;;;9.26;77.26
19736;BME280;32064;49.310;8.646;2023-01-10T06:42:15;100986.75;;;9.29;76.29
19736;BME280;32064;49.310;8.646;2023-01-10T06:44:41;100996.47;;;9.27;77.53
19736;BME280;32064;49.310;8.646;2023-01-10T06:47:06;101003.69;;;9.24;76.92
19736;BME280;32064;49.310;8.646;2023-01-10T06:49:32;101009.53;;;9.29;76.18
19736;BME280;32064;49.310;8.646;2023-01-10T06:51:57;101011.28;;;9.28;77.52
19736;BME280;32064;49.310;8.646;2023-01-10T06:54:22;101026.03;;;9.31;77.49
19736;BME280;32064;49.310;8.646;2023-01-10T06:56:48;101030.38;;;9.32;77.20
19736;BME280;32064;49.310;8.646;2023-01-10T06:59:13;101030.38;;;9.32;76.90
19736;BME280;32064;49.310;8.646;2023-01-10T07:01:39;101037.38;;;9.31;77.16
19736;BME280;32064;49.310;8.646;2023-01-10T07:04:04;101036.63;;;9.29;77.29
19736;BME280;32064;49.310;8.646;2023-01-10T07:06:30;101036.09;;;9.22;76.31
19736;BME280;32064;49.310;8.646;2023-01-10T07:08:56;101032.72;;;9.20;76.05
19736;BME280;32064;49.310;8.646;2023-01-10T07:11:22;101027.56;;;9.19;76.63
19736;BME280;32064;49.310;8.646;2023-01-10T07:13:47;101018.50;;;9.25;76.77
19736;BME280;32064;49.310;8.646;2023-01-10T07:16:14;101012.81;;;9.16;75.72
19736;BME280;32064;49.310;8.646;2023-01-10T07:18:41;101024.25;;;9.15;75.90
19736;BME280;32064;49.310;8.646;2023-01-10T07:21:08;101034.81;;;9.14;76.46
19736;BME280;32064;49.310;8.646;2023-01-10T07:23:35;101040.25;;;9.11;76.02
19736;BME280;32064;49.310;8.646;2023-01-10T07:26:05;101060.50;;;9.09;76.56
19736;BME280;32064;49.310;8.646;2023-01-10T07:28:31;101057.00;;;9.08;75.99
19736;BME280;32064;49.310;8.646;2023-01-10T07:31:00;101062.34;;;9.07;76.04
19736;BME280;32064;49.310;8.646;2023-01-10T07:33:27;101065.88;;;9.06;76.70
19736;BME280;32064;49.310;8.646;2023-01-10T07:35:52;101072.84;;;9.07;76.83
19736;BME280;32064;49.310;8.646;2023-01-10T07:38:17;101095.63;;;9.06;76.81
19736;BME280;32064;49.310;8.646;2023-01-10T07:40:43;101091.13;;;9.08;76.57
19736;BME280;32064;49.310;8.646;2023-01-10T07:43:08;101096.19;;;9.11;75.89
19736;BME280;32064;49.310;8.646;2023-01-10T07:45:34;101101.44;;;9.11;75.80
19736;BME280;32064;49.310;8.646;2023-01-10T07:48:01;101105.78;;;9.12;76.33
19736;BME280;32064;49.310;8.646;2023-01-10T07:50:29;101102.47;;;9.09;76.34
19736;BME280;32064;49.310;8.646;2023-01-10T07:52:55;101107.56;;;9.12;75.80
19736;BME280;32064;49.310;8.646;2023-01-10T07:55:21;101102.38;;;9.10;76.70
19736;BME280;32064;49.310;8.646;2023-01-10T07:57:46;101104.25;;;9.08;76.58
19736;BME280;32064;49.310;8.646;2023-01-10T08:00:13;101114.44;;;9.14;76.12
19736;BME280;32064;49.310;8.646;2023-01-10T08:02:39;101106.31;;;9.19;76.72
19736;BME280;32064;49.310;8.646;2023-01-10T08:05:05;101120.19;;;9.21;76.79
19736;BME280;32064;49.310;8.646;2023-01-10T08:07:30;101129.53;;;9.27;76.70
19736;BME280;32064;49.310;8.646;2023-01-10T08:09:56;101135.56;;;9.29;76.41
19736;BME280;32064;49.310;8.646;2023-01-10T08:12:21;101134.69;;;9.28;76.00
19736;BME280;32064;49.310;8.646;2023-01-10T08:14:49;101136.41;;;9.29;76.34
19736;BME280;32064;49.310;8.646;2023-01-10T08:17:15;101138.19;;;9.29;75.99
19736;BME280;32064;49.310;8.646;2023-01-10T08:19:40;101130.16;;;9.32;75.34
19736;BME280;32064;49.310;8.646;2023-01-10T08:22:05;101124.72;;;9.35;75.41
19736;BME280;32064;49.310;8.646;2023-01-10T08:24:31;101129.13;;;9.34;75.49
19736;BME280;32064;49.310;8.646;2023-01-10T08:26:57;101123.88;;;9.34;75.54
19736;BME280;32064;49.310;8.646;2023-01-10T08:29:23;101128.81;;;9.40;75.20
19736;BME280;32064;49.310;8.646;2023-01-10T08:31:48;101143.78;;;9.38;74.80
19736;BME280;32064;49.310;8.646;2023-01-10T08:34:13;101156.75;;;9.41;74.56
19736;BME280;32064;49.310;8.646;2023-01-10T08:36:39;101147.03;;;9.43;75.28
19736;BME280;32064;49.310;8.646;2023-01-10T08:39:04;101153.88;;;9.46;74.97
19736;BME280;32064;49.310;8.646;2023-01-10T08:41:30;101148.81;;;9.43;74.00
19736;BME280;32064;49.310;8.646;2023-01-10T08:43:55;101152.09;;;9.47;74.87
19736;BME280;32064;49.310;8.646;2023-01-10T08:46:21;101157.97;;;9.52;73.92
19736;BME280;32064;49.310;8.646;2023-01-10T08:48:46;101156.97;;;9.54;75.37
19736;BME280;32064;49.310;8.646;2023-01-10T08:51:14;101171.63;;;9.58;74.59
19736;BME280;32064;49.310;8.646;2023-01-10T08:53:40;101161.94;;;9.59;73.99
19736;BME280;32064;49.310;8.646;2023-01-10T08:56:07;101178.47;;;9.61;75.23
19736;BME280;32064;49.310;8.646;2023-01-10T08:58:32;101178.47;;;9.61;74.81
19736;BME280;32064;49.310;8.646;2023-01-10T09:00:58;101187.22;;;9.61;74.40
19736;BME280;32064;49.310;8.646;2023-01-10T09:03:24;101181.88;;;9.63;74.14
19736;BME280;32064;49.310;8.646;2023-01-10T09:05:49;101188.66;;;9.67;75.18
19736;BME280;32064;49.310;8.646;2023-01-10T09:08:15;101194.75;;;9.67;74.02
19736;BME280;32064;49.310;8.646;2023-01-10T09:10:40;101185.25;;;9.65;75.07
19736;BME280;32064;49.310;8.646;2023-01-10T09:13:06;101184.50;;;9.63;74.17
19736;BME280;32064;49.310;8.646;2023-01-10T09:15:33;101187.03;;;9.64;74.57
19736;BME280;32064;49.310;8.646;2023-01-10T09:18:01;101182.56;;;9.66;75.06
19736;BME280;32064;49.310;8.646;2023-01-10T09:20:29;101184.84;;;9.73;74.03
19736;BME280;32064;49.310;8.646;2023-01-10T09:22:55;101183.16;;;9.72;75.35
19736;BME280;32064;49.310;8.646;2023-01-10T09:25:22;101188.00;;;9.79;74.16
19736;BME280;32064;49.310;8.646;2023-01-10T09:27:55;101182.91;;;9.76;74.68
19736;BME280;32064;49.310;8.646;2023-01-10T09:30:20;101198.09;;;9.87;74.18
19736;BME280;32064;49.310;8.646;2023-01-10T09:32:50;101208.88;;;9.82;74.95
19736;BME280;32064;49.310;8.646;2023-01-10T09:35:16;101218.09;;;9.89;74.94
19736;BME280;32064;49.310;8.646;2023-01-10T09:37:41;101217.66;;;9.81;75.58
19736;BME280;32064;49.310;8.646;2023-01-10T09:40:08;101223.94;;;9.79;74.18
19736;BME280;32064;49.310;8.646;2023-01-10T09:53:15;101239.69;;;9.79;75.63
19736;BME280;32064;49.310;8.646;2023-01-10T09:55:45;101238.00;;;9.78;74.66
19736;BME280;32064;49.310;8.646;2023-01-10T09:58:16;101238.94;;;9.77;75.59
19736;BME280;32064;49.310;8.646;2023-01-10T10:00:47;101240.47;;;9.81;75.78
19736;BME280;32064;49.310;8.646;2023-01-10T10:03:23;101236.75;;;9.85;75.51
19736;BME280;32064;49.310;8.646;2023-01-10T10:05:49;101244.16;;;9.94;75.47
19736;BME280;32064;49.310;8.646;2023-01-10T10:08:17;101245.94;;;9.94;74.32
19736;BME280;32064;49.310;8.646;2023-01-10T10:10:55;101241.59;;;9.77;75.59
19736;BME280;32064;49.310;8.646;2023-01-10T10:29:54;101235.44;;;9.94;74.38
19736;BME280;32064;49.310;8.646;2023-01-10T10:37:51;101228.81;;;10.18;74.65
19736;BME280;32064;49.310;8.646;2023-01-10T10:40:22;101238.91;;;10.26;73.90
19736;BME280;32064;49.310;8.646;2023-01-10T10:42:51;101237.59;;;10.34;72.69
19736;BME280;32064;49.310;8.646;2023-01-10T10:47:46;101231.31;;;10.37;74.82
19736;BME280;32064;49.310;8.646;2023-01-10T10:50:32;101228.69;;;10.37;73.54
19736;BME280;32064;49.310;8.646;2023-01-10T10:53:02;101226.13;;;10.36;74.20
19736;BME280;32064;49.310;8.646;2023-01-10T10:55:32;101226.91;;;10.38;73.16
19736;BME280;32064;49.310;8.646;2023-01-10T10:57:59;101233.44;;;10.30;73.45
19736;BME280;32064;49.310;8.646;2023-01-10T11:00:26;101236.22;;;10.27;71.54
19736;BME280;32064;49.310;8.646;2023-01-10T11:02:59;101233.06;;;10.21;72.90
19736;BME280;32064;49.310;8.646;2023-01-10T11:05:33;101233.00;;;10.22;73.22
19736;BME280;32064;49.310;8.646;2023-01-10T11:08:04;101228.75;;;10.20;71.70
19736;BME280;32064;49.310;8.646;2023-01-10T11:10:33;101235.69;;;10.21;73.09
19736;BME280;32064;49.310;8.646;2023-01-10T11:13:02;101232.28;;;10.19;72.89
19736;BME280;32064;49.310;8.646;2023-01-10T11:15:46;101233.06;;;10.21;71.37
19736;BME280;32064;49.310;8.646;2023-01-10T11:20:51;101239.16;;;10.21;72.03
19736;BME280;32064;49.310;8.646;2023-01-10T11:23:54;101237.38;;;10.22;72.71
19736;BME280;32064;49.310;8.646;2023-01-10T11:26:35;101235.38;;;10.27;72.92
19736;BME280;32064;49.310;8.646;2023-01-10T11:29:07;101239.75;;;10.26;71.63
19736;BME280;32064;49.310;8.646;2023-01-10T11:31:38;101242.56;;;10.23;71.31
19736;BME280;32064;49.310;8.646;2023-01-10T11:34:15;101251.56;;;10.19;71.42
19736;BME280;32064;49.310;8.646;2023-01-10T11:37:38;101238.56;;;10.16;72.51
19736;BME280;32064;49.310;8.646;2023-01-10T11:39:38;101237.38;;;10.22;72.61
19736;BME280;32064;49.310;8.646;2023-01-10T11:42:36;101240.88;;;10.22;71.04
19736;BME280;32064;49.310;8.646;2023-01-10T11:45:38;101233.44;;;10.30;70.54
19736;BME280;32064;49.310;8.646;2023-01-10T11:48:06;101231.72;;;10.29;70.56
19736;BME280;32064;49.310;8.646;2023-01-10T11:50:35;101232.56;;;10.46;70.57
19736;BME280;32064;49.310;8.646;2023-01-10T11:53:03;101247.75;;;10.56;71.94
19736;BME280;32064;49.310;8.646;2023-01-10T11:55:31;101241.72;;;10.54;71.36
19736;BME280;32064;49.310;8.646;2023-01-10T11:58:07;101234.00;;;10.51;69.23
19736;BME280;32064;49.310;8.646;2023-01-10T12:00:39;101232.47;;;10.63;69.55
19736;BME280;32064;49.310;8.646;2023-01-10T12:03:29;101235.19;;;10.62;71.42
19736;BME280;32064;49.310;8.646;2023-01-10T12:06:02;101223.19;;;10.72;71.25
19736;BME280;32064;49.310;8.646;2023-01-10T12:08:36;101224.16;;;10.71;69.62
19736;BME280;32064;49.310;8.646;2023-01-10T12:13:51;101207.16;;;10.76;70.96
19736;BME280;32064;49.310;8.646;2023-01-10T12:18:52;101209.19;;;10.71;69.37
19736;BME280;32064;49.310;8.646;2023-01-10T12:21:22;101208.94;;;10.76;69.71
19736;BME280;32064;49.310;8.646;2023-01-10T12:23:52;101212.41;;;10.76;68.99
19736;BME280;32064;49.310;8.646;2023-01-10T12:26:18;101197.28;;;10.80;68.06
19736;BME280;32064;49.310;8.646;2023-01-10T12:28:54;101198.69;;;10.55;69.37
19736;BME280;32064;49.310;8.646;2023-01-10T12:31:22;101196.13;;;10.70;69.05
19736;BME280;32064;49.310;8.646;2023-01-10T12:34:03;101192.63;;;10.69;68.52
19736;BME280;32064;49.310;8.646;2023-01-10T12:44:35;101199.88;;;10.96;67.77
19736;BME280;32064;49.310;8.646;2023-01-10T12:50:12;101184.94;;;10.96;68.11
19736;BME280;32064;49.310;8.646;2023-01-10T12:55:30;101189.81;;;11.02;68.00
19736;BME280;32064;49.310;8.646;2023-01-10T12:58:00;101199.06;;;11.10;69.14
19736;BME280;32064;49.310;8.646;2023-01-10T13:00:39;101204.34;;;11.10;68.04
19736;BME280;32064;49.310;8.646;2023-01-10T13:03:12;101187.41;;;11.14;67.58
19736;BME280;32064;49.310;8.646;2023-01-10T13:05:38;101194.28;;;11.16;67.11
19736;BME280;32064;49.310;8.646;2023-01-10T13:08:06;101192.00;;;11.10;67.26
19736;BME280;32064;49.310;8.646;2023-01-10T13:10:37;101192.38;;;11.04;66.71
19736;BME280;32064;49.310;8.646;2023-01-10T13:13:33;101185.00;;;10.95;67.48
19736;BME280;32064;49.310;8.646;2023-01-10T13:16:18;101191.81;;;10.99;65.22
19736;BME280;32064;49.310;8.646;2023-01-10T13:19:02;101173.84;;;11.06;65.14
19736;BME280;32064;49.310;8.646;2023-01-10T13:21:32;101177.53;;;11.17;65.72
19736;BME280;32064;49.310;8.646;2023-01-10T13:24:01;101177.25;;;11.22;65.49
19736;BME280;32064;49.310;8.646;2023-01-10T13:29:21;101165.69;;;11.24;65.01
19736;BME280;32064;49.310;8.646;2023-01-10T13:31:47;101178.09;;;11.22;65.59
19736;BME280;32064;49.310;8.646;2023-01-10T13:34:15;101163.91;;;11.25;64.52
19736;BME280;32064;49.310;8.646;2023-01-10T13:36:55;101170.78;;;11.28;66.36
19736;BME280;32064;49.310;8.646;2023-01-10T13:39:32;101169.19;;;11.39;64.78
19736;BME280;32064;49.310;8.646;2023-01-10T14:00:45;101189.97;;;11.15;66.11
19736;BME280;32064;49.310;8.646;2023-01-10T14:03:52;101183.53;;;11.05;65.79
19736;BME280;32064;49.310;8.646;2023-01-10T14:08:55;101181.66;;;11.07;66.41
19736;BME280;32064;49.310;8.646;2023-01-10T14:11:23;101179.88;;;11.08;66.21
19736;BME280;32064;49.310;8.646;2023-01-10T14:13:55;101175.38;;;11.10;66.05
19736;BME280;32064;49.310;8.646;2023-01-10T14:16:27;101171.03;;;11.09;65.81
19736;BME280;32064;49.310;8.646;2023-01-10T14:18:53;101177.25;;;11.08;65.42
19736;BME280;32064;49.310;8.646;2023-01-10T14:21:26;101159.56;;;11.10;67.08
19736;BME280;32064;49.310;8.646;2023-01-10T14:23:53;101158.63;;;11.11;67.02
19736;BME280;32064;49.310;8.646;2023-01-10T14:26:33;101151.38;;;11.00;65.05
19736;BME280;32064;49.310;8.646;2023-01-10T14:29:04;101144.13;;;11.04;64.71
19736;BME280;32064;49.310;8.646;2023-01-10T14:31:31;101140.56;;;11.05;64.84
19736;BME280;32064;49.310;8.646;2023-01-10T14:33:57;101139.16;;;10.99;65.65
19736;BME280;32064;49.310;8.646;2023-01-10T14:36:25;101133.03;;;10.98;66.87
19736;BME280;32064;49.310;8.646;2023-01-10T14:38:56;101130.41;;;10.98;66.58
19736;BME280;32064;49.310;8.646;2023-01-10T14:41:42;101127.09;;;10.95;66.94
19736;BME280;32064;49.310;8.646;2023-01-10T14:44:15;101120.78;;;10.97;66.63
19736;BME280;32064;49.310;8.646;2023-01-10T14:46:55;101123.03;;;10.89;67.06